Time;durP1;ratioP1;P1;durP2;ratioP2;P2;SDS_P1;SDS_P2;PMS_P1;PMS_P2;Temp;Humidity;BMP_temperature;BMP_pressure;BME280_temperature;BME280_humidity;BME280_pressure;Samples;Min_cycle;Max_cycle;Signal;HPM_P1;HPM_P2
2022/11/15 00:02:14;;;;;;;56.05;30.50;;;6.00;99.90;;;5.86;100.00;101001.81;6292926;22;20652;-78
2022/11/15 00:05:02;;;;;;;45.08;28.00;;;6.00;99.90;;;5.72;100.00;101005.19;6283352;22;20253;-79
2022/11/15 00:07:50;;;;;;;47.45;30.73;;;5.90;99.90;;;5.71;100.00;101004.38;6281260;22;20193;-80
2022/11/15 00:10:42;;;;;;;43.58;25.65;;;5.90;99.90;;;5.61;100.00;100999.19;6281145;22;20159;-79
2022/11/15 00:13:30;;;;;;;49.35;29.40;;;5.90;99.90;;;5.55;100.00;100999.00;6280951;22;20166;-79
2022/11/15 00:16:18;;;;;;;43.45;27.02;;;5.80;99.90;;;5.74;100.00;100981.69;6280906;22;20194;-80
2022/11/15 00:19:07;;;;;;;41.85;24.45;;;5.80;99.90;;;5.76;100.00;100995.81;6289359;22;20193;-80
2022/11/15 00:21:54;;;;;;;41.10;25.88;;;5.90;99.90;;;5.69;100.00;100975.00;6295050;22;20178;-79
2022/11/15 00:24:42;;;;;;;48.35;27.13;;;5.90;99.90;;;5.66;100.00;100971.81;6285578;22;20166;-79
2022/11/15 00:27:30;;;;;;;41.33;26.00;;;5.80;99.90;;;5.82;100.00;100962.88;6282877;22;20198;-79
2022/11/15 00:30:17;;;;;;;59.47;30.67;;;5.90;99.90;;;6.00;100.00;100971.66;6284141;22;20318;-79
2022/11/15 00:33:07;;;;;;;42.45;26.80;;;6.00;99.90;;;5.82;100.00;100973.63;6285364;22;20215;-80
2022/11/15 00:36:02;;;;;;;41.05;26.60;;;5.90;99.90;;;5.85;100.00;100965.25;6281933;22;20209;-80
2022/11/15 00:38:50;;;;;;;47.45;28.58;;;5.90;99.90;;;5.68;100.00;100972.47;6290248;22;20194;-79
2022/11/15 00:41:37;;;;;;;47.65;28.23;;;5.90;99.90;;;5.59;100.00;100966.28;6292182;22;20157;-79
2022/11/15 00:44:25;;;;;;;41.88;25.73;;;5.80;99.90;;;5.68;100.00;100957.22;6289834;22;20163;-79
2022/11/15 00:47:12;;;;;;;44.97;25.77;;;5.80;99.90;;;5.62;100.00;100960.56;6288857;22;20229;-79
2022/11/15 00:50:00;;;;;;;45.63;27.02;;;5.80;99.90;;;5.45;100.00;100952.69;6282558;22;20498;-79
2022/11/15 00:52:55;;;;;;;40.17;25.70;;;5.70;99.90;;;5.47;100.00;100954.19;6282520;22;20254;-79
2022/11/15 00:55:43;;;;;;;43.17;25.52;;;5.60;99.90;;;5.42;100.00;100951.16;6282069;22;20174;-80
2022/11/15 00:58:32;;;;;;;44.47;26.25;;;5.60;99.90;;;5.49;100.00;100957.53;6283464;22;20202;-81
2022/11/15 01:01:20;;;;;;;37.78;24.40;;;5.60;99.90;;;5.46;100.00;100954.38;6281667;22;20162;-79
2022/11/15 01:04:08;;;;;;;41.70;24.55;;;5.60;99.90;;;5.54;100.00;100949.00;6282556;22;20622;-79
2022/11/15 01:06:56;;;;;;;49.88;27.67;;;5.60;99.90;;;5.62;100.00;100947.13;6281325;22;20158;-79
2022/11/15 01:09:48;;;;;;;50.60;26.88;;;5.70;99.90;;;5.61;100.00;100944.63;6281860;22;20186;-81
2022/11/15 01:12:36;;;;;;;41.78;28.08;;;5.70;99.90;;;5.36;100.00;100946.47;6283331;22;20249;-80
2022/11/15 01:15:24;;;;;;;42.88;26.25;;;5.60;99.90;;;5.35;100.00;100942.13;6284562;22;20178;-79
2022/11/15 01:18:11;;;;;;;47.70;28.42;;;5.60;99.90;;;5.36;100.00;100946.47;6283071;22;20666;-79
2022/11/15 01:20:59;;;;;;;50.75;26.83;;;5.60;99.90;;;5.34;100.00;100937.75;6282420;22;20162;-80
2022/11/15 01:23:47;;;;;;;45.60;27.73;;;5.50;99.90;;;5.38;100.00;100933.72;6280931;22;20539;-79
2022/11/15 01:26:36;;;;;;;49.08;27.42;;;5.50;99.90;;;5.60;100.00;100932.22;6282370;22;20498;-79
2022/11/15 01:29:24;;;;;;;44.90;25.92;;;5.60;99.90;;;5.58;100.00;100926.16;6298071;22;20244;-82
2022/11/15 01:32:11;;;;;;;44.78;29.00;;;5.60;99.90;;;5.44;100.00;100922.31;6312585;22;20158;-80
2022/11/15 01:34:59;;;;;;;41.88;26.23;;;5.60;99.90;;;5.37;100.00;100909.75;6314525;22;20158;-81
2022/11/15 01:37:46;;;;;;;50.90;28.25;;;5.60;99.90;;;5.42;100.00;100913.59;6329276;22;20169;-79
2022/11/15 01:40:34;;;;;;;43.28;26.88;;;5.60;99.90;;;5.35;100.00;100919.81;6298234;22;20158;-80
2022/11/15 01:43:27;;;;;;;50.92;26.58;;;5.50;99.90;;;5.28;100.00;100916.94;6287823;22;20246;-80
2022/11/15 01:46:31;;;;;;;45.72;27.75;;;5.50;99.90;;;5.38;100.00;100895.31;6281826;22;20493;-81
2022/11/15 01:49:23;;;;;;;50.80;26.65;;;5.50;99.90;;;5.44;100.00;100884.75;6280613;22;20501;-80
2022/11/15 01:52:18;;;;;;;44.72;26.77;;;5.60;99.90;;;5.42;100.00;100891.31;6281495;22;20221;-80
2022/11/15 01:55:11;;;;;;;45.45;27.45;;;5.60;99.90;;;5.29;100.00;100870.31;6282284;22;20225;-80
2022/11/15 01:58:04;;;;;;;41.92;25.00;;;5.50;99.90;;;5.27;100.00;100879.56;6286736;22;20183;-81
2022/11/15 02:00:54;;;;;;;43.60;25.67;;;5.50;99.90;;;5.31;100.00;100879.06;6281186;22;20162;-80
2022/11/15 02:03:52;;;;;;;45.85;27.27;;;5.40;99.90;;;5.28;100.00;100876.69;6281822;22;20572;-81
2022/11/15 02:06:42;;;;;;;54.10;29.05;;;5.50;99.90;;;5.40;100.00;100866.47;6281307;22;20206;-80
2022/11/15 02:09:30;;;;;;;44.58;26.35;;;5.50;99.90;;;5.49;100.00;100865.44;6281239;22;20190;-80
2022/11/15 02:12:22;;;;;;;48.05;27.17;;;5.60;99.90;;;5.51;100.00;100868.81;6281683;22;20662;-80
2022/11/15 02:15:12;;;;;;;44.28;25.38;;;5.60;99.90;;;5.47;100.00;100868.28;6281267;22;20622;-80
2022/11/15 02:18:16;;;;;;;50.63;28.02;;;5.60;99.90;;;5.46;100.00;100869.31;6282168;22;20195;-80
2022/11/15 02:21:22;;;;;;;43.58;26.50;;;5.60;99.90;;;5.30;100.00;100866.66;6296449;22;20161;-80
2022/11/15 02:24:50;;;;;;;39.17;25.50;;;5.50;99.90;;;5.37;100.00;100872.19;6303975;22;20146;-81
2022/11/15 02:28:29;;;;;;;49.25;26.70;;;5.50;99.90;;;5.33;100.00;100871.66;6293466;22;20521;-79
2022/11/15 02:31:31;;;;;;;35.63;23.38;;;5.60;99.90;;;5.33;100.00;100866.28;6282810;22;20209;-81
2022/11/15 02:34:32;;;;;;;40.30;27.52;;;5.50;99.90;;;5.33;100.00;100876.19;6282553;22;20618;-80
2022/11/15 02:37:32;;;;;;;51.42;27.30;;;5.50;99.90;;;5.39;100.00;100864.78;6281779;22;20562;-81
2022/11/15 02:40:38;;;;;;;42.28;23.52;;;5.50;99.90;;;5.37;100.00;100870.34;6283197;22;20194;-80
2022/11/15 02:49:53;;;;;;;45.22;27.77;;;5.60;99.90;;;5.42;100.00;100849.19;6282491;22;20198;-81
2022/11/15 02:52:41;;;;;;;39.55;25.52;;;5.60;99.90;;;5.43;100.00;100856.22;6286089;22;20159;-81
2022/11/15 02:55:39;;;;;;;55.72;32.92;;;5.60;99.90;;;5.39;100.00;100856.75;6282141;22;20386;-81
2022/11/15 02:58:58;;;;;;;52.95;27.60;;;5.50;99.90;;;5.55;100.00;100854.03;6295405;22;20226;-80
2022/11/15 03:02:10;;;;;;;54.38;27.77;;;5.60;99.90;;;5.41;100.00;100852.88;6288994;22;20161;-81
2022/11/15 03:05:05;;;;;;;49.65;25.50;;;5.60;99.90;;;5.54;100.00;100855.03;6282349;22;20158;-80
2022/11/15 03:08:03;;;;;;;44.35;25.67;;;5.60;99.90;;;5.45;100.00;100851.53;6283333;22;20179;-81
2022/11/15 03:11:08;;;;;;;46.53;26.05;;;5.60;99.90;;;5.59;100.00;100853.53;6283892;22;20229;-81
2022/11/15 03:14:01;;;;;;;40.95;24.75;;;5.70;99.90;;;5.39;100.00;100854.91;6282089;22;20499;-79
2022/11/15 03:17:01;;;;;;;45.15;25.98;;;5.60;99.90;;;5.44;100.00;100852.53;6282826;22;20206;-79
2022/11/15 03:19:54;;;;;;;52.10;26.50;;;5.60;99.90;;;5.44;100.00;100860.59;6284318;22;20582;-79
2022/11/15 03:22:47;;;;;;;49.95;27.88;;;5.60;99.90;;;5.32;100.00;100853.91;6294472;22;20397;-81
2022/11/15 03:25:42;;;;;;;42.17;25.10;;;5.50;99.90;;;5.29;100.00;100854.22;6300072;22;20211;-79
2022/11/15 03:28:39;;;;;;;42.20;26.50;;;5.50;99.90;;;5.22;100.00;100855.94;6300663;22;20245;-79
2022/11/15 03:31:48;;;;;;;40.08;25.00;;;5.40;99.90;;;5.40;100.00;100845.00;6297382;22;20235;-80
2022/11/15 03:34:44;;;;;;;37.75;25.50;;;5.50;99.90;;;5.29;100.00;100848.03;6287698;22;20242;-80
2022/11/15 03:37:37;;;;;;;45.10;27.85;;;5.50;99.90;;;5.24;100.00;100846.69;6285409;22;20238;-79
2022/11/15 03:40:34;;;;;;;37.13;23.20;;;5.40;99.90;;;5.24;100.00;100840.47;6283140;22;20217;-79
2022/11/15 03:43:35;;;;;;;47.60;28.08;;;5.40;99.90;;;5.40;100.00;100840.47;6283851;22;20162;-81
2022/11/15 03:46:34;;;;;;;41.65;24.77;;;5.50;99.90;;;5.43;100.00;100845.50;6296643;22;20150;-80
2022/11/15 03:49:30;;;;;;;41.55;24.95;;;5.50;99.90;;;5.38;100.00;100836.28;6299985;22;20206;-81
2022/11/15 03:52:22;;;;;;;39.97;24.23;;;5.60;99.90;;;5.46;100.00;100839.81;6304540;22;20188;-81
2022/11/15 03:55:16;;;;;;;45.25;25.23;;;5.60;99.90;;;5.25;100.00;100826.91;6304465;22;20158;-80
2022/11/15 03:58:03;;;;;;;44.78;23.65;;;5.50;99.90;;;5.32;100.00;100824.41;6303618;22;20163;-81
2022/11/15 04:00:52;;;;;;;43.53;25.02;;;5.50;99.90;;;5.35;100.00;100837.47;6301391;22;20182;-81
2022/11/15 04:03:40;;;;;;;42.35;24.10;;;5.50;99.90;;;5.49;100.00;100839.44;6301648;22;20154;-80
2022/11/15 04:06:29;;;;;;;44.13;24.13;;;5.60;99.90;;;5.50;100.00;100833.09;6279262;22;20174;-79
2022/11/15 04:09:18;;;;;;;42.38;24.90;;;5.60;99.90;;;5.35;100.00;100824.03;6299320;22;20243;-78
2022/11/15 04:12:05;;;;;;;46.17;26.52;;;5.60;99.90;;;5.60;100.00;100828.38;6291608;22;20205;-81
2022/11/15 04:17:53;;;;;;;45.70;24.85;;;5.60;99.90;;;5.59;100.00;100823.16;5136582;27;21059;-80
2022/11/15 04:26:48;;;;;;;41.05;22.88;;;5.70;99.90;;;5.55;100.00;100820.00;5093514;28;20209;-79
2022/11/15 04:29:36;;;;;;;50.08;27.30;;;5.70;99.90;;;5.67;100.00;100813.22;5078559;28;20258;-79
2022/11/15 04:32:23;;;;;;;41.50;22.88;;;5.80;99.90;;;5.58;100.00;100822.31;5094955;28;20225;-80
2022/11/15 04:35:12;;;;;;;44.78;24.75;;;5.70;99.90;;;5.58;100.00;100816.09;5096797;28;20199;-81
2022/11/15 04:38:00;;;;;;;35.70;22.48;;;5.70;99.90;;;5.48;100.00;100812.78;5096311;28;20198;-80
2022/11/15 04:40:48;;;;;;;41.92;27.08;;;5.70;99.90;;;5.66;100.00;100808.84;5094996;28;20571;-80
2022/11/15 04:43:36;;;;;;;37.53;22.05;;;5.70;99.90;;;5.51;100.00;100812.44;5097595;28;20210;-80
2022/11/15 04:46:23;;;;;;;42.55;24.27;;;5.70;99.90;;;5.43;100.00;100812.44;5099075;28;20608;-80
2022/11/15 04:49:11;;;;;;;38.65;23.38;;;5.60;99.90;;;5.51;100.00;100805.25;5103863;28;20229;-80
2022/11/15 04:52:00;;;;;;;37.83;21.13;;;5.70;99.90;;;5.58;100.00;100800.84;5112919;28;20209;-80
2022/11/15 04:54:48;;;;;;;38.95;24.00;;;5.70;99.90;;;5.58;100.00;100792.78;5115198;28;20183;-81
2022/11/15 04:57:35;;;;;;;32.50;24.40;;;5.70;99.90;;;5.59;100.00;100789.09;5114926;28;20233;-81
2022/11/15 05:00:23;;;;;;;46.95;25.13;;;5.80;99.90;;;5.63;100.00;100808.38;5108060;28;20249;-79
2022/11/15 05:06:16;;;;;;;42.88;23.95;;;5.70;99.90;;;5.74;100.00;100815.22;5115007;28;20229;-79
2022/11/15 05:09:05;;;;;;;36.90;22.20;;;5.80;99.90;;;5.64;100.00;100808.22;5114797;28;20214;-80
2022/11/15 05:11:53;;;;;;;40.50;23.10;;;5.80;99.90;;;5.76;100.00;100810.53;5114628;28;20198;-80
2022/11/15 05:14:40;;;;;;;39.50;23.35;;;5.80;99.90;;;5.72;100.00;100809.19;5114850;28;20214;-80
2022/11/15 05:17:28;;;;;;;32.15;21.70;;;5.80;99.90;;;5.63;100.00;100817.28;5096348;28;20247;-81
2022/11/15 05:20:15;;;;;;;47.67;23.65;;;5.80;99.90;;;5.53;100.00;100813.94;5113714;28;20225;-79
2022/11/15 05:23:02;;;;;;;35.03;21.85;;;5.80;99.90;;;5.48;100.00;100815.47;5113175;28;20206;-79
2022/11/15 05:25:51;;;;;;;39.17;23.08;;;5.70;99.90;;;5.60;100.00;100804.19;5112286;28;20215;-80
2022/11/15 05:28:39;;;;;;;39.65;24.85;;;5.70;99.90;;;5.71;100.00;100810.22;5096674;28;20219;-78
2022/11/15 05:31:27;;;;;;;42.03;23.58;;;5.70;99.90;;;5.67;100.00;100810.53;5094421;28;20198;-80
2022/11/15 05:34:14;;;;;;;41.13;22.02;;;5.80;99.90;;;5.70;100.00;100804.00;5081657;28;20199;-80
2022/11/15 05:37:02;;;;;;;33.17;20.65;;;5.80;99.90;;;5.68;100.00;100809.53;5090340;28;20234;-80
2022/11/15 05:39:49;;;;;;;36.72;21.95;;;5.80;99.90;;;5.64;100.00;100810.06;5084554;28;20246;-80
2022/11/15 05:42:38;;;;;;;39.85;24.25;;;5.80;99.90;;;5.58;100.00;100806.22;5085959;28;20207;-80
2022/11/15 05:45:26;;;;;;;36.92;22.50;;;5.80;99.90;;;5.57;100.00;100807.22;5088939;28;20211;-80
2022/11/15 05:48:15;;;;;;;39.10;23.70;;;5.70;99.90;;;5.40;100.00;100808.28;5092496;28;20226;-79
2022/11/15 05:51:05;;;;;;;37.05;23.50;;;5.60;99.90;;;5.42;100.00;100816.97;5084959;28;20212;-81
2022/11/15 05:53:57;;;;;;;38.70;21.45;;;5.60;99.90;;;5.29;100.00;100807.78;5082242;28;20156;-79
2022/11/15 05:56:45;;;;;;;44.08;25.23;;;5.50;99.90;;;5.42;100.00;100808.13;5100358;28;20215;-80
2022/11/15 05:59:36;;;;;;;38.67;22.65;;;5.60;99.90;;;5.44;100.00;100812.28;5099595;28;20411;-80
2022/11/15 06:02:23;;;;;;;36.58;23.13;;;5.60;99.90;;;5.47;100.00;100817.31;5098858;28;20207;-80
2022/11/15 06:05:11;;;;;;;38.92;22.95;;;5.60;99.90;;;5.52;100.00;100817.63;5089863;28;20226;-80
2022/11/15 06:07:59;;;;;;;40.80;25.63;;;5.70;99.90;;;5.47;100.00;100811.13;5086235;28;20266;-81
2022/11/15 06:10:47;;;;;;;40.13;26.08;;;5.60;99.90;;;5.54;100.00;100815.63;5093033;28;20202;-81
2022/11/15 06:13:35;;;;;;;38.50;23.50;;;5.70;99.90;;;5.51;100.00;100815.97;5081649;28;20214;-81
2022/11/15 06:16:23;;;;;;;41.38;25.55;;;5.70;99.90;;;5.61;100.00;100813.94;5091797;28;20265;-80
2022/11/15 06:19:11;;;;;;;35.20;20.88;;;5.70;99.90;;;5.58;100.00;100811.56;5083842;28;20207;-80
2022/11/15 06:21:59;;;;;;;38.00;23.15;;;5.70;99.90;;;5.54;100.00;100820.16;5095605;28;20222;-81
2022/11/15 06:24:46;;;;;;;44.03;22.80;;;5.70;99.90;;;5.63;100.00;100819.13;5092049;28;20206;-80
2022/11/15 06:27:34;;;;;;;42.35;24.48;;;5.70;99.90;;;5.51;100.00;100821.34;5086684;28;20222;-80
2022/11/15 06:30:22;;;;;;;40.47;23.58;;;5.70;99.90;;;5.48;100.00;100829.72;5089421;28;20257;-80
2022/11/15 06:33:10;;;;;;;38.85;24.35;;;5.60;99.90;;;5.45;100.00;100827.38;5079282;28;20192;-79
2022/11/15 06:36:03;;;;;;;44.42;24.10;;;5.60;99.90;;;5.58;100.00;100814.25;5063301;28;20204;-81
2022/11/15 06:38:51;;;;;;;39.20;23.23;;;5.70;99.90;;;5.72;100.00;100826.13;5083388;28;20230;-80
2022/11/15 06:41:38;;;;;;;37.08;23.20;;;5.80;99.90;;;5.76;100.00;100826.66;5085338;28;20253;-80
2022/11/15 06:44:25;;;;;;;46.70;24.80;;;5.80;99.90;;;5.78;100.00;100828.13;5090862;28;20203;-79
2022/11/15 06:47:12;;;;;;;38.38;24.48;;;5.80;99.90;;;5.71;100.00;100837.06;5081176;28;20215;-78
2022/11/15 06:50:02;;;;;;;35.15;23.00;;;5.80;99.90;;;5.64;100.00;100827.00;5086452;28;20214;-80
2022/11/15 06:52:49;;;;;;;40.55;23.80;;;5.80;99.90;;;5.82;100.00;100828.63;5072721;28;20235;-80
2022/11/15 06:55:36;;;;;;;33.65;23.25;;;5.90;99.90;;;5.91;100.00;100838.34;5074803;28;20198;-78
2022/11/15 06:58:27;;;;;;;37.50;23.45;;;5.90;99.90;;;5.85;100.00;100828.28;5062201;28;20242;-81
2022/11/15 07:01:14;;;;;;;36.67;22.45;;;5.90;99.90;;;5.78;100.00;100833.50;5075051;28;20195;-80
2022/11/15 07:04:02;;;;;;;41.42;24.77;;;5.90;99.90;;;5.86;100.00;100838.84;5070779;28;20256;-79
2022/11/15 07:06:51;;;;;;;40.95;24.42;;;5.90;99.90;;;5.87;100.00;100839.72;5058351;28;20253;-80
2022/11/15 07:09:38;;;;;;;41.90;25.38;;;5.90;99.90;;;5.87;100.00;100837.03;5074232;28;20230;-80
2022/11/15 07:12:25;;;;;;;39.13;24.88;;;5.90;99.90;;;6.01;100.00;100844.38;5073261;28;20219;-80
2022/11/15 07:15:13;;;;;;;48.22;24.48;;;6.00;99.90;;;6.02;100.00;100846.03;5079720;28;20234;-80
2022/11/15 07:18:02;;;;;;;45.38;24.58;;;6.00;99.90;;;6.26;100.00;100854.00;5092056;28;20210;-80
2022/11/15 07:20:49;;;;;;;37.72;25.88;;;6.20;99.90;;;6.38;100.00;100854.47;5086529;28;20174;-80
2022/11/15 07:23:40;;;;;;;36.35;22.27;;;6.30;99.90;;;6.39;100.00;100853.44;5070042;28;20565;-80
2022/11/15 07:26:27;;;;;;;39.05;25.60;;;6.40;99.90;;;6.49;100.00;100860.25;5078182;28;20203;-80
2022/11/15 07:29:16;;;;;;;38.38;24.80;;;6.40;99.90;;;6.52;100.00;100861.78;5078633;23;20321;-86
2022/11/15 07:32:06;;;;;;;35.83;21.02;;;6.50;99.90;;;6.46;100.00;100855.25;5022668;28;20319;-85
2022/11/15 07:34:54;;;;;;;34.58;21.55;;;6.50;99.90;;;6.61;100.00;100851.81;5023129;28;20293;-83
2022/11/15 07:37:42;;;;;;;35.45;21.77;;;6.60;99.90;;;6.66;100.00;100861.00;5021197;28;20192;-83
2022/11/15 07:40:33;;;;;;;39.58;24.17;;;6.70;99.90;;;6.79;100.00;100858.56;5041185;28;20592;-84
2022/11/15 07:43:35;;;;;;;30.83;21.42;;;6.70;99.90;;;6.84;100.00;100849.97;5043481;28;20224;-87
2022/11/15 07:46:57;;;;;;;35.35;22.00;;;6.80;99.90;;;6.95;99.52;100858.47;5035330;28;20201;-85
2022/11/15 07:49:54;;;;;;;43.25;20.52;;;6.90;99.90;;;7.05;99.09;100855.53;5050809;28;20251;-86
2022/11/15 07:52:47;;;;;;;37.50;22.52;;;7.00;99.90;;;7.20;98.65;100851.03;5042603;28;20200;-84
2022/11/15 07:55:38;;;;;;;33.75;20.92;;;7.10;99.90;;;7.28;97.21;100844.72;5041773;28;20188;-83
2022/11/15 07:58:30;;;;;;;36.80;23.77;;;7.20;99.90;;;7.37;96.77;100846.31;5043711;28;20223;-84
2022/11/15 08:01:20;;;;;;;47.65;22.63;;;;;;;7.58;95.26;100851.00;5043665;28;20184;-83
2022/11/15 08:04:11;;;;;;;36.42;20.35;;;;;;;7.58;94.17;100843.78;5043336;28;20320;-83
2022/11/15 08:07:02;;;;;;;87.57;37.20;;;;;;;7.88;93.42;100839.25;5042949;28;20251;-83
2022/11/15 08:09:55;;;;;;;32.95;22.02;;;;;;;7.85;93.44;100839.59;5042977;28;20232;-86
2022/11/15 08:12:45;;;;;;;39.72;22.88;;;;;;;8.03;92.43;100841.94;5042511;28;20197;-84
2022/11/15 08:15:35;;;;;;;27.35;19.13;;;;;;;8.13;91.00;100840.59;5043635;28;20683;-85
2022/11/15 08:18:23;;;;;;;34.35;22.58;;;;;;;8.19;90.94;100834.47;5044369;28;20212;-85
2022/11/15 08:21:15;;;;;;;34.58;20.85;;;;;;;8.21;89.88;100843.22;5024256;28;20193;-84
2022/11/15 08:24:07;;;;;;;35.90;22.27;;;;;;;8.31;89.78;100834.03;5022113;28;20181;-84
2022/11/15 08:26:55;;;;;;;31.20;20.58;;;;;;;8.37;88.81;100838.66;5022389;28;20189;-85
2022/11/15 08:29:48;;;;;;;46.28;28.15;;;;;;;8.35;90.16;100838.84;5022764;28;20312;-83
2022/11/15 08:32:36;;;;;;;33.22;21.40;;;;;;;8.56;89.21;100835.38;5034077;28;20244;-82
2022/11/15 08:35:25;;;;;;;29.42;20.50;;;;;;;8.59;87.83;100833.13;5042810;28;20228;-85
2022/11/15 08:38:16;;;;;;;39.47;23.05;;;;;;;8.64;87.39;100833.38;5042598;28;20265;-85
2022/11/15 08:41:06;;;;;;;31.40;18.87;;;;;;;8.69;87.25;100836.34;5045425;28;20722;-84
2022/11/15 08:43:54;;;;;;;34.65;20.30;;;;;;;8.80;87.27;100832.31;5044940;28;20919;-85
2022/11/15 08:46:46;;;;;;;29.50;18.35;;;;;;;9.08;85.45;100835.06;5043442;28;20208;-84
2022/11/15 08:49:35;;;;;;;40.13;22.57;;;;;;;9.28;83.94;100840.63;5049079;28;20224;-82
2022/11/15 08:52:25;;;;;;;31.57;21.00;;;;;;;9.22;84.32;100830.59;5058982;28;20467;-84
2022/11/15 08:55:14;;;;;;;32.38;20.55;;;;;;;9.09;84.90;100832.19;5056393;28;20391;-83
2022/11/15 08:58:04;;;;;;;28.27;21.10;;;;;;;9.12;84.29;100834.47;5046240;28;20204;-84
2022/11/15 09:00:54;;;;;;;30.03;19.87;;;;;;;9.21;84.23;100834.34;5045686;28;20826;-83
2022/11/15 09:03:43;;;;;;;33.53;23.30;;;;;;;9.27;84.85;100838.97;5049742;28;20409;-83
2022/11/15 09:06:32;;;;;;;29.70;20.40;;;;;;;9.48;83.72;100837.06;5060717;28;20399;-83
2022/11/15 09:09:20;;;;;;;28.13;22.07;;;;;;;9.55;83.23;100835.25;5061007;28;20463;-83
2022/11/15 09:12:09;;;;;;;27.60;18.37;;;;;;;9.69;82.52;100833.47;5061092;28;20389;-82
2022/11/15 09:14:57;;;;;;;35.50;20.50;;;;;;;9.78;82.30;100837.66;5061145;28;20361;-81
2022/11/15 09:17:46;;;;;;;30.23;18.43;;;;;;;9.86;81.13;100829.44;5057327;28;20438;-85
2022/11/15 09:20:36;;;;;;;26.57;18.87;;;;;;;9.99;81.06;100829.50;5060464;28;20421;-83
2022/11/15 09:23:24;;;;;;;36.70;19.53;;;;;;;10.31;78.90;100825.28;5058711;28;20403;-83
2022/11/15 09:26:12;;;;;;;30.23;19.73;;;;;;;10.31;79.77;100829.91;5060806;28;20415;-82
2022/11/15 09:29:01;;;;;;;33.70;19.33;;;;;;;10.32;80.17;100831.53;5060886;28;20446;-82
2022/11/15 09:31:48;;;;;;;27.40;18.63;;;;;;;10.34;78.87;100835.72;5059439;28;20419;-82
2022/11/15 09:34:36;;;;;;;27.00;17.73;;;;;;;10.63;77.89;100841.84;5060628;28;20427;-81
2022/11/15 09:37:26;;;;;;;22.00;17.07;;;;;;;10.53;77.75;100836.81;5060985;28;20410;-83
2022/11/15 09:40:19;;;;;;;26.00;16.60;;;;;;;10.58;78.13;100837.06;5060103;28;20575;-83
2022/11/15 09:43:25;;;;;;;24.67;17.73;;;;;;;10.78;76.39;100846.06;5055036;28;20815;-84
2022/11/15 09:46:19;;;;;;;25.07;17.57;;;;;;;10.92;76.83;100840.66;5046638;28;20414;-85
2022/11/15 09:49:33;;;;;;;28.77;17.10;;;;;;;10.94;75.64;100830.47;4996574;28;20462;-83
2022/11/15 09:52:20;;;;;;;24.53;15.27;;;;;;;10.99;75.17;100830.69;4971504;28;20417;-84
2022/11/15 09:54:52;;;;;;;26.47;16.60;;;;;;;11.01;75.92;100823.19;5020704;28;20395;-82
2022/11/15 09:57:32;;;;;;;23.00;15.60;;;;;;;11.11;75.29;100820.91;5060504;28;20413;-83
2022/11/15 10:00:11;;;;;;;24.67;16.90;;;;;;;11.17;75.28;100822.78;5042681;28;20473;-82
2022/11/15 10:03:12;;;;;;;23.77;17.07;;;;;;;11.22;75.16;100826.56;5028435;28;20713;-85
2022/11/15 10:05:43;;;;;;;27.27;18.00;;;;;;;11.45;74.10;100818.00;5056047;28;20486;-82
2022/11/15 10:08:27;;;;;;;26.73;17.57;;;;;;;11.55;73.33;100826.53;5043146;28;20403;-82
2022/11/15 10:11:01;;;;;;;29.77;17.30;;;;;;;11.52;74.07;100816.09;5059669;28;20451;-83
2022/11/15 10:13:53;;;;;;;27.27;17.33;;;;;;;11.62;73.33;100816.50;5036208;28;20451;-84
2022/11/15 10:16:53;;;;;;;24.80;16.67;;;;;;;11.68;73.03;100802.09;5059059;28;20407;-82
2022/11/15 10:19:29;;;;;;;29.07;20.60;;;;;;;11.79;72.30;100799.81;5058422;28;20517;-82
2022/11/15 10:22:16;;;;;;;22.20;17.27;;;;;;;11.85;71.72;100799.81;5039970;28;20459;-83
2022/11/15 10:24:47;;;;;;;28.07;17.53;;;;;;;11.90;71.81;100801.91;5042951;28;20473;-82
2022/11/15 10:27:20;;;;;;;26.97;17.90;;;;;;;11.74;71.89;100793.16;5059259;28;20427;-84
2022/11/15 10:29:51;;;;;;;24.97;16.07;;;;;;;11.87;71.99;100786.88;5058839;28;20509;-83
2022/11/15 10:32:23;;;;;;;24.10;16.93;;;;;;;11.98;71.80;100783.50;5057826;28;20740;-84
2022/11/15 10:34:52;;;;;;;19.80;16.30;;;;;;;12.12;70.89;100778.84;5058779;28;20367;-80
2022/11/15 10:37:30;;;;;;;34.63;18.13;;;;;;;12.13;70.62;100775.09;5041896;28;20424;-81
2022/11/15 10:40:15;;;;;;;28.57;17.60;;;;;;;12.17;70.97;100771.75;5058670;28;20506;-81
2022/11/15 10:42:46;;;;;;;25.83;16.67;;;;;;;12.62;69.43;100764.41;5054902;28;20424;-82
2022/11/15 10:45:30;;;;;;;23.40;18.73;;;;;;;12.54;69.83;100761.09;5030831;28;20482;-82
2022/11/15 10:48:23;;;;;;;22.50;16.20;;;;;;;12.63;69.88;100752.47;5033769;28;20475;-84
2022/11/15 10:50:54;;;;;;;30.13;16.37;;;;;;;12.62;69.15;100747.28;5037751;28;20528;-84
2022/11/15 10:53:32;;;;;;;21.10;14.90;;;;;;;12.49;69.15;100742.75;5045348;28;20863;-83
2022/11/15 10:56:07;;;;;;;37.70;17.20;;;;;;;12.46;69.57;100740.50;5028880;28;20426;-84
2022/11/15 10:58:43;;;;;;;24.10;16.93;;;;;;;12.51;68.75;100740.66;5028176;28;20483;-83
2022/11/15 11:01:19;;;;;;;21.50;14.23;;;;;;;12.43;69.64;100740.94;5031698;28;20460;-82
2022/11/15 11:04:01;;;;;;;20.57;14.77;;;;;;;12.51;69.98;100731.69;5044803;28;20417;-83
2022/11/15 11:06:31;;;;;;;23.60;16.03;;;;;;;12.63;68.66;100735.38;5032469;28;20430;-85
2022/11/15 11:09:03;;;;;;;25.40;15.10;;;;;;;12.69;68.82;100730.94;5044510;28;20468;-83
2022/11/15 11:11:47;;;;;;;23.83;16.20;;;;;;;12.64;68.94;100721.56;5044871;28;20472;-84
2022/11/15 11:14:23;;;;;;;27.80;15.80;;;;;;;12.78;68.57;100721.50;5028422;28;20451;-83
2022/11/15 11:16:56;;;;;;;26.07;17.00;;;;;;;12.80;68.77;100720.19;5026992;28;20780;-83
2022/11/15 11:19:49;;;;;;;27.10;15.57;;;;;;;13.01;68.30;100714.41;5045737;28;20642;-86
2022/11/15 11:22:28;;;;;;;22.50;15.37;;;;;;;13.16;67.19;100711.38;5043425;28;20443;-85
2022/11/15 11:25:19;;;;;;;22.17;16.63;;;;;;;13.15;67.29;100717.84;5041417;28;20430;-85
2022/11/15 11:28:00;;;;;;;23.60;15.20;;;;;;;13.19;67.04;100721.78;5046122;28;20766;-85
2022/11/15 11:30:42;;;;;;;26.83;16.67;;;;;;;13.04;68.03;100718.53;5042212;28;20458;-86
2022/11/15 11:33:18;;;;;;;20.73;15.90;;;;;;;12.91;68.11;100714.06;5031923;28;20470;-84
2022/11/15 11:35:59;;;;;;;20.50;14.67;;;;;;;13.21;67.53;100708.81;5041178;28;20415;-85
2022/11/15 11:38:51;;;;;;;20.80;15.80;;;;;;;13.19;67.77;100716.34;5043426;28;20406;-83
2022/11/15 11:41:44;;;;;;;17.57;13.50;;;;;;;13.31;67.25;100709.09;5021935;28;20431;-84
2022/11/15 11:44:34;;;;;;;21.43;13.87;;;;;;;13.23;67.62;100705.84;5026406;28;20512;-84
2022/11/15 11:47:11;;;;;;;23.73;16.40;;;;;;;13.34;67.06;100705.97;5043119;28;20406;-84
2022/11/15 11:49:45;;;;;;;35.67;24.17;;;;;;;13.41;67.21;100709.41;5051288;28;20474;-84
2022/11/15 11:52:19;;;;;;;24.80;19.07;;;;;;;13.38;66.80;100704.44;5028793;28;20423;-83
2022/11/15 11:54:55;;;;;;;26.33;15.13;;;;;;;13.37;67.07;100707.38;5041954;28;20411;-82
2022/11/15 11:57:35;;;;;;;20.03;15.43;;;;;;;13.44;67.17;100700.84;5056873;28;20433;-81
2022/11/15 12:00:15;;;;;;;23.20;15.90;;;;;;;13.54;66.57;100694.03;5040472;28;20451;-83
2022/11/15 12:02:55;;;;;;;31.33;15.00;;;;;;;13.59;66.78;100697.75;5055777;28;20423;-84
2022/11/15 12:05:30;;;;;;;19.80;14.13;;;;;;;13.72;66.55;100688.59;5028254;28;20441;-84
2022/11/15 12:08:09;;;;;;;28.70;16.70;;;;;;;13.71;65.79;100682.31;5040969;28;20502;-84
2022/11/15 12:10:46;;;;;;;25.10;16.50;;;;;;;13.66;65.98;100684.88;5042299;28;20789;-83
2022/11/15 12:13:20;;;;;;;23.33;16.07;;;;;;;13.66;66.27;100673.19;5041837;28;20407;-86
2022/11/15 12:15:59;;;;;;;21.50;15.10;;;;;;;13.73;65.90;100671.22;5024575;28;20409;-84
2022/11/15 12:18:32;;;;;;;24.40;17.30;;;;;;;13.75;65.96;100674.53;5022114;28;20425;-82
2022/11/15 12:21:07;;;;;;;20.07;14.87;;;;;;;13.59;66.61;100675.16;5031618;28;20516;-83